Main page
METAR-TAF:

METAR-TAF

Airports :

Persian Gulf Airport

Asaluyeh, Iran

latitude: 27-22-46N, longitude: 52-44-15E, elevation: 8 m

Current weather observation

The report was made 14 minutes ago, at 01:30 UTC
Calm wind
Temperature 26°C
Humidity 100%
Pressure 996 hPa
Visibility: 0050 m
fog

METAR: OIBP 200130Z 00000KT 0050 FG VV001 26/26 Q0995 A2940

Time: 06:14 (01:44 UTC)


TAF: missing

Weather observations and forecasts of more than 4000 airports (METAR and TAF reports).

The available stations are represented by yellow and red dots on the map.

Hover mouse over dot to see the name of the station.

Then click to see weather observations and forecasts.

To change the map : click on the green buttons with a black cross to zoom in, on the green button with a dash to zoom out, or on the green arrows for adjacent maps.


METAR-TAF: